sensor_id;sensor_type;location;lat;lon;timestamp;P1;durP1;ratioP1;P2;durP2;ratioP2
51664;SDS011;37751;52.408;12.536;2023-03-01T00:01:44;31.10;;;16.33;;
51664;SDS011;37751;52.408;12.536;2023-03-01T00:04:11;30.80;;;16.40;;
51664;SDS011;37751;52.408;12.536;2023-03-01T00:06:39;32.87;;;16.33;;
51664;SDS011;37751;52.408;12.536;2023-03-01T00:09:09;35.63;;;16.67;;
51664;SDS011;37751;52.408;12.536;2023-03-01T00:11:36;30.70;;;15.80;;
51664;SDS011;37751;52.408;12.536;2023-03-01T00:14:04;34.90;;;17.07;;
51664;SDS011;37751;52.408;12.536;2023-03-01T00:16:35;32.53;;;16.40;;
51664;SDS011;37751;52.408;12.536;2023-03-01T00:19:18;33.03;;;16.37;;
51664;SDS011;37751;52.408;12.536;2023-03-01T00:21:47;31.13;;;15.70;;
51664;SDS011;37751;52.408;12.536;2023-03-01T00:24:15;32.00;;;16.10;;
51664;SDS011;37751;52.408;12.536;2023-03-01T00:26:43;29.03;;;16.13;;
51664;SDS011;37751;52.408;12.536;2023-03-01T00:29:11;30.53;;;16.80;;
51664;SDS011;37751;52.408;12.536;2023-03-01T00:31:39;35.10;;;16.57;;
51664;SDS011;37751;52.408;12.536;2023-03-01T00:34:07;28.37;;;14.53;;
51664;SDS011;37751;52.408;12.536;2023-03-01T00:36:36;32.03;;;14.83;;
51664;SDS011;37751;52.408;12.536;2023-03-01T00:39:05;35.23;;;16.57;;
51664;SDS011;37751;52.408;12.536;2023-03-01T00:41:42;28.10;;;12.47;;
51664;SDS011;37751;52.408;12.536;2023-03-01T00:44:10;32.83;;;15.77;;
51664;SDS011;37751;52.408;12.536;2023-03-01T00:46:39;29.30;;;15.93;;
51664;SDS011;37751;52.408;12.536;2023-03-01T00:49:06;29.80;;;15.23;;
51664;SDS011;37751;52.408;12.536;2023-03-01T00:51:34;29.27;;;15.53;;
51664;SDS011;37751;52.408;12.536;2023-03-01T00:54:02;32.63;;;15.80;;
51664;SDS011;37751;52.408;12.536;2023-03-01T00:56:31;35.67;;;17.23;;
51664;SDS011;37751;52.408;12.536;2023-03-01T00:58:59;33.17;;;16.87;;
51664;SDS011;37751;52.408;12.536;2023-03-01T01:01:28;34.23;;;17.63;;
51664;SDS011;37751;52.408;12.536;2023-03-01T01:03:58;35.03;;;16.33;;
51664;SDS011;37751;52.408;12.536;2023-03-01T01:06:36;31.27;;;15.83;;
51664;SDS011;37751;52.408;12.536;2023-03-01T01:09:10;38.27;;;16.80;;
51664;SDS011;37751;52.408;12.536;2023-03-01T01:11:44;35.33;;;17.00;;
51664;SDS011;37751;52.408;12.536;2023-03-01T01:14:15;35.47;;;16.93;;
51664;SDS011;37751;52.408;12.536;2023-03-01T01:16:44;31.23;;;16.63;;
51664;SDS011;37751;52.408;12.536;2023-03-01T01:19:13;36.73;;;17.50;;
51664;SDS011;37751;52.408;12.536;2023-03-01T01:21:41;33.07;;;17.30;;
51664;SDS011;37751;52.408;12.536;2023-03-01T01:24:12;35.20;;;15.93;;
51664;SDS011;37751;52.408;12.536;2023-03-01T01:26:40;33.13;;;16.87;;
51664;SDS011;37751;52.408;12.536;2023-03-01T01:29:12;29.80;;;15.70;;
51664;SDS011;37751;52.408;12.536;2023-03-01T01:31:40;30.10;;;15.90;;
51664;SDS011;37751;52.408;12.536;2023-03-01T01:34:13;32.77;;;16.80;;
51664;SDS011;37751;52.408;12.536;2023-03-01T01:36:44;35.40;;;16.87;;
51664;SDS011;37751;52.408;12.536;2023-03-01T01:39:17;30.23;;;15.20;;
51664;SDS011;37751;52.408;12.536;2023-03-01T01:41:45;31.10;;;16.00;;
51664;SDS011;37751;52.408;12.536;2023-03-01T01:47:00;35.17;;;15.03;;
51664;SDS011;37751;52.408;12.536;2023-03-01T01:49:36;27.53;;;13.50;;
51664;SDS011;37751;52.408;12.536;2023-03-01T01:52:19;26.97;;;14.53;;
51664;SDS011;37751;52.408;12.536;2023-03-01T01:54:57;30.50;;;13.40;;
51664;SDS011;37751;52.408;12.536;2023-03-01T01:57:39;19.37;;;10.80;;
51664;SDS011;37751;52.408;12.536;2023-03-01T02:00:13;27.33;;;10.37;;
51664;SDS011;37751;52.408;12.536;2023-03-01T02:02:45;24.63;;;10.43;;
51664;SDS011;37751;52.408;12.536;2023-03-01T02:05:22;29.20;;;11.53;;
51664;SDS011;37751;52.408;12.536;2023-03-01T02:08:28;20.30;;;10.27;;
51664;SDS011;37751;52.408;12.536;2023-03-01T02:10:59;25.13;;;12.30;;
51664;SDS011;37751;52.408;12.536;2023-03-01T02:13:27;26.87;;;11.07;;
51664;SDS011;37751;52.408;12.536;2023-03-01T02:15:55;25.17;;;10.47;;
51664;SDS011;37751;52.408;12.536;2023-03-01T02:18:23;28.10;;;12.27;;
51664;SDS011;37751;52.408;12.536;2023-03-01T02:27:20;24.00;;;12.73;;
51664;SDS011;37751;52.408;12.536;2023-03-01T02:29:53;27.53;;;13.70;;
51664;SDS011;37751;52.408;12.536;2023-03-01T02:32:23;28.50;;;15.50;;
51664;SDS011;37751;52.408;12.536;2023-03-01T02:34:52;25.37;;;13.33;;
51664;SDS011;37751;52.408;12.536;2023-03-01T02:37:22;21.27;;;12.33;;
51664;SDS011;37751;52.408;12.536;2023-03-01T02:39:56;27.40;;;13.13;;
51664;SDS011;37751;52.408;12.536;2023-03-01T02:42:33;25.03;;;12.47;;
51664;SDS011;37751;52.408;12.536;2023-03-01T02:45:07;28.90;;;13.53;;
51664;SDS011;37751;52.408;12.536;2023-03-01T02:47:37;27.67;;;12.00;;
51664;SDS011;37751;52.408;12.536;2023-03-01T02:50:12;21.77;;;12.60;;
51664;SDS011;37751;52.408;12.536;2023-03-01T02:53:08;26.97;;;12.97;;
51664;SDS011;37751;52.408;12.536;2023-03-01T02:55:43;21.53;;;12.83;;
51664;SDS011;37751;52.408;12.536;2023-03-01T02:58:12;24.60;;;12.47;;
51664;SDS011;37751;52.408;12.536;2023-03-01T03:00:41;30.47;;;13.27;;
51664;SDS011;37751;52.408;12.536;2023-03-01T03:03:16;24.53;;;13.40;;
51664;SDS011;37751;52.408;12.536;2023-03-01T03:05:46;29.90;;;13.70;;
51664;SDS011;37751;52.408;12.536;2023-03-01T03:08:15;24.07;;;12.73;;
51664;SDS011;37751;52.408;12.536;2023-03-01T03:10:51;26.17;;;12.27;;
51664;SDS011;37751;52.408;12.536;2023-03-01T03:13:19;26.83;;;12.33;;
51664;SDS011;37751;52.408;12.536;2023-03-01T03:15:46;27.47;;;13.47;;
51664;SDS011;37751;52.408;12.536;2023-03-01T03:18:15;25.37;;;13.50;;
51664;SDS011;37751;52.408;12.536;2023-03-01T03:20:44;24.23;;;12.17;;
51664;SDS011;37751;52.408;12.536;2023-03-01T03:23:12;26.63;;;13.77;;
51664;SDS011;37751;52.408;12.536;2023-03-01T03:25:40;26.80;;;14.17;;
51664;SDS011;37751;52.408;12.536;2023-03-01T03:28:08;23.13;;;12.40;;
51664;SDS011;37751;52.408;12.536;2023-03-01T03:30:39;26.50;;;12.47;;
51664;SDS011;37751;52.408;12.536;2023-03-01T03:33:09;27.50;;;13.13;;
51664;SDS011;37751;52.408;12.536;2023-03-01T03:35:41;25.03;;;12.67;;
51664;SDS011;37751;52.408;12.536;2023-03-01T03:38:15;24.13;;;11.87;;
51664;SDS011;37751;52.408;12.536;2023-03-01T03:41:06;21.03;;;12.10;;
51664;SDS011;37751;52.408;12.536;2023-03-01T03:43:36;26.40;;;11.70;;
51664;SDS011;37751;52.408;12.536;2023-03-01T03:46:06;21.43;;;10.20;;
51664;SDS011;37751;52.408;12.536;2023-03-01T03:48:36;23.17;;;9.97;;
51664;SDS011;37751;52.408;12.536;2023-03-01T03:51:10;19.03;;;9.57;;
51664;SDS011;37751;52.408;12.536;2023-03-01T03:53:39;18.20;;;9.70;;
51664;SDS011;37751;52.408;12.536;2023-03-01T03:56:08;24.43;;;10.93;;
51664;SDS011;37751;52.408;12.536;2023-03-01T03:58:36;19.03;;;10.33;;
51664;SDS011;37751;52.408;12.536;2023-03-01T04:01:04;21.20;;;9.87;;
51664;SDS011;37751;52.408;12.536;2023-03-01T04:03:32;20.13;;;10.00;;
51664;SDS011;37751;52.408;12.536;2023-03-01T04:06:00;16.73;;;9.10;;
51664;SDS011;37751;52.408;12.536;2023-03-01T04:08:29;25.17;;;10.13;;
51664;SDS011;37751;52.408;12.536;2023-03-01T04:10:58;20.00;;;9.37;;
51664;SDS011;37751;52.408;12.536;2023-03-01T04:13:48;20.97;;;9.30;;
51664;SDS011;37751;52.408;12.536;2023-03-01T04:16:17;19.47;;;9.33;;
51664;SDS011;37751;52.408;12.536;2023-03-01T04:18:45;20.97;;;8.67;;
51664;SDS011;37751;52.408;12.536;2023-03-01T04:21:13;22.13;;;9.50;;
51664;SDS011;37751;52.408;12.536;2023-03-01T04:23:42;15.93;;;8.40;;
51664;SDS011;37751;52.408;12.536;2023-03-01T04:26:09;20.23;;;9.20;;
51664;SDS011;37751;52.408;12.536;2023-03-01T04:28:41;24.00;;;9.33;;
51664;SDS011;37751;52.408;12.536;2023-03-01T04:31:17;18.23;;;8.80;;
51664;SDS011;37751;52.408;12.536;2023-03-01T04:33:49;18.97;;;9.20;;
51664;SDS011;37751;52.408;12.536;2023-03-01T04:36:21;18.47;;;8.67;;
51664;SDS011;37751;52.408;12.536;2023-03-01T04:38:52;20.83;;;9.20;;
51664;SDS011;37751;52.408;12.536;2023-03-01T04:41:21;22.13;;;9.07;;
51664;SDS011;37751;52.408;12.536;2023-03-01T04:43:51;18.13;;;8.90;;
51664;SDS011;37751;52.408;12.536;2023-03-01T04:46:19;23.60;;;9.50;;
51664;SDS011;37751;52.408;12.536;2023-03-01T04:48:48;17.67;;;9.93;;
51664;SDS011;37751;52.408;12.536;2023-03-01T04:51:16;19.13;;;8.90;;
51664;SDS011;37751;52.408;12.536;2023-03-01T04:53:45;19.10;;;8.83;;
51664;SDS011;37751;52.408;12.536;2023-03-01T04:56:13;20.57;;;9.17;;
51664;SDS011;37751;52.408;12.536;2023-03-01T04:58:42;16.07;;;8.70;;
51664;SDS011;37751;52.408;12.536;2023-03-01T05:01:13;19.87;;;8.57;;
51664;SDS011;37751;52.408;12.536;2023-03-01T05:03:50;15.97;;;8.03;;
51664;SDS011;37751;52.408;12.536;2023-03-01T05:06:19;17.63;;;9.33;;
51664;SDS011;37751;52.408;12.536;2023-03-01T05:08:47;18.07;;;9.40;;
51664;SDS011;37751;52.408;12.536;2023-03-01T05:11:21;21.43;;;8.90;;
51664;SDS011;37751;52.408;12.536;2023-03-01T05:13:49;22.77;;;9.23;;
51664;SDS011;37751;52.408;12.536;2023-03-01T05:16:22;26.83;;;9.90;;
51664;SDS011;37751;52.408;12.536;2023-03-01T05:18:49;17.43;;;10.33;;
51664;SDS011;37751;52.408;12.536;2023-03-01T05:21:23;23.37;;;9.97;;
51664;SDS011;37751;52.408;12.536;2023-03-01T05:23:56;23.83;;;9.30;;
51664;SDS011;37751;52.408;12.536;2023-03-01T05:26:27;20.17;;;9.83;;
51664;SDS011;37751;52.408;12.536;2023-03-01T05:28:55;18.87;;;10.13;;
51664;SDS011;37751;52.408;12.536;2023-03-01T05:31:27;22.50;;;11.10;;
51664;SDS011;37751;52.408;12.536;2023-03-01T05:33:57;24.30;;;11.20;;
51664;SDS011;37751;52.408;12.536;2023-03-01T05:36:25;25.53;;;12.43;;
51664;SDS011;37751;52.408;12.536;2023-03-01T05:38:53;28.57;;;12.30;;
51664;SDS011;37751;52.408;12.536;2023-03-01T05:41:20;26.90;;;11.73;;
51664;SDS011;37751;52.408;12.536;2023-03-01T05:43:48;24.93;;;12.37;;
51664;SDS011;37751;52.408;12.536;2023-03-01T05:46:16;28.87;;;12.40;;
51664;SDS011;37751;52.408;12.536;2023-03-01T05:48:45;23.33;;;11.53;;
51664;SDS011;37751;52.408;12.536;2023-03-01T05:51:12;31.17;;;12.33;;
51664;SDS011;37751;52.408;12.536;2023-03-01T05:53:40;24.70;;;11.03;;
51664;SDS011;37751;52.408;12.536;2023-03-01T05:56:08;24.43;;;10.80;;
51664;SDS011;37751;52.408;12.536;2023-03-01T05:58:36;26.47;;;12.33;;
51664;SDS011;37751;52.408;12.536;2023-03-01T06:01:56;26.57;;;11.83;;
51664;SDS011;37751;52.408;12.536;2023-03-01T06:04:24;22.87;;;11.10;;
51664;SDS011;37751;52.408;12.536;2023-03-01T06:06:52;27.33;;;11.80;;
51664;SDS011;37751;52.408;12.536;2023-03-01T06:09:19;22.40;;;11.07;;
51664;SDS011;37751;52.408;12.536;2023-03-01T06:11:47;20.43;;;11.23;;
51664;SDS011;37751;52.408;12.536;2023-03-01T06:14:15;23.77;;;10.27;;
51664;SDS011;37751;52.408;12.536;2023-03-01T06:16:43;26.63;;;11.20;;
51664;SDS011;37751;52.408;12.536;2023-03-01T06:19:13;21.27;;;11.47;;
51664;SDS011;37751;52.408;12.536;2023-03-01T06:21:41;26.73;;;11.60;;
51664;SDS011;37751;52.408;12.536;2023-03-01T06:24:14;21.63;;;10.97;;
51664;SDS011;37751;52.408;12.536;2023-03-01T06:26:42;29.57;;;12.60;;
51664;SDS011;37751;52.408;12.536;2023-03-01T06:29:10;20.93;;;11.57;;
51664;SDS011;37751;52.408;12.536;2023-03-01T06:31:38;20.57;;;11.33;;
51664;SDS011;37751;52.408;12.536;2023-03-01T06:34:06;25.30;;;11.73;;
51664;SDS011;37751;52.408;12.536;2023-03-01T06:36:33;34.00;;;11.27;;
51664;SDS011;37751;52.408;12.536;2023-03-01T06:39:01;26.07;;;12.20;;
51664;SDS011;37751;52.408;12.536;2023-03-01T06:41:29;25.17;;;11.30;;
51664;SDS011;37751;52.408;12.536;2023-03-01T06:43:56;27.40;;;10.57;;
51664;SDS011;37751;52.408;12.536;2023-03-01T06:46:24;19.07;;;10.43;;
51664;SDS011;37751;52.408;12.536;2023-03-01T06:48:53;22.93;;;9.23;;
51664;SDS011;37751;52.408;12.536;2023-03-01T06:51:21;18.90;;;9.93;;
51664;SDS011;37751;52.408;12.536;2023-03-01T06:53:48;22.93;;;9.63;;
51664;SDS011;37751;52.408;12.536;2023-03-01T06:56:16;20.73;;;9.67;;
51664;SDS011;37751;52.408;12.536;2023-03-01T06:58:44;19.70;;;10.50;;
51664;SDS011;37751;52.408;12.536;2023-03-01T07:01:11;16.50;;;10.10;;
51664;SDS011;37751;52.408;12.536;2023-03-01T07:03:39;18.83;;;9.43;;
51664;SDS011;37751;52.408;12.536;2023-03-01T07:06:07;17.23;;;10.00;;
51664;SDS011;37751;52.408;12.536;2023-03-01T07:08:37;20.70;;;10.20;;
51664;SDS011;37751;52.408;12.536;2023-03-01T07:11:05;17.53;;;9.97;;
51664;SDS011;37751;52.408;12.536;2023-03-01T07:13:33;21.80;;;11.00;;
51664;SDS011;37751;52.408;12.536;2023-03-01T07:16:01;24.47;;;10.03;;
51664;SDS011;37751;52.408;12.536;2023-03-01T07:18:29;24.33;;;11.30;;
51664;SDS011;37751;52.408;12.536;2023-03-01T07:20:56;26.27;;;10.80;;
51664;SDS011;37751;52.408;12.536;2023-03-01T07:23:24;27.33;;;13.47;;
51664;SDS011;37751;52.408;12.536;2023-03-01T07:25:56;24.37;;;10.77;;
51664;SDS011;37751;52.408;12.536;2023-03-01T07:28:36;24.03;;;12.70;;
51664;SDS011;37751;52.408;12.536;2023-03-01T07:31:09;23.93;;;10.90;;
51664;SDS011;37751;52.408;12.536;2023-03-01T07:33:36;22.20;;;11.57;;
51664;SDS011;37751;52.408;12.536;2023-03-01T07:36:04;27.30;;;11.20;;
51664;SDS011;37751;52.408;12.536;2023-03-01T07:38:33;26.73;;;12.80;;
51664;SDS011;37751;52.408;12.536;2023-03-01T07:41:01;32.70;;;14.37;;
51664;SDS011;37751;52.408;12.536;2023-03-01T07:43:31;33.67;;;15.10;;
51664;SDS011;37751;52.408;12.536;2023-03-01T07:45:59;36.83;;;15.30;;
51664;SDS011;37751;52.408;12.536;2023-03-01T07:48:29;41.80;;;15.60;;
51664;SDS011;37751;52.408;12.536;2023-03-01T07:50:59;47.50;;;15.70;;
51664;SDS011;37751;52.408;12.536;2023-03-01T07:53:32;37.90;;;14.10;;
51664;SDS011;37751;52.408;12.536;2023-03-01T07:56:05;34.70;;;12.97;;
51664;SDS011;37751;52.408;12.536;2023-03-01T07:58:36;25.77;;;12.97;;
51664;SDS011;37751;52.408;12.536;2023-03-01T08:01:06;22.87;;;10.33;;
51664;SDS011;37751;52.408;12.536;2023-03-01T08:03:36;19.73;;;10.00;;
51664;SDS011;37751;52.408;12.536;2023-03-01T08:06:06;20.90;;;9.87;;
51664;SDS011;37751;52.408;12.536;2023-03-01T08:08:36;22.93;;;11.10;;
51664;SDS011;37751;52.408;12.536;2023-03-01T08:11:05;22.93;;;10.63;;
51664;SDS011;37751;52.408;12.536;2023-03-01T08:13:35;19.50;;;10.27;;
51664;SDS011;37751;52.408;12.536;2023-03-01T08:16:03;24.43;;;11.30;;
51664;SDS011;37751;52.408;12.536;2023-03-01T08:18:37;22.33;;;9.60;;
51664;SDS011;37751;52.408;12.536;2023-03-01T08:21:12;21.60;;;10.60;;
51664;SDS011;37751;52.408;12.536;2023-03-01T08:23:43;21.00;;;9.57;;
51664;SDS011;37751;52.408;12.536;2023-03-01T08:26:13;22.17;;;10.47;;
51664;SDS011;37751;52.408;12.536;2023-03-01T08:28:46;17.47;;;9.17;;
51664;SDS011;37751;52.408;12.536;2023-03-01T08:31:17;21.43;;;8.93;;
51664;SDS011;37751;52.408;12.536;2023-03-01T08:33:48;13.47;;;8.17;;
51664;SDS011;37751;52.408;12.536;2023-03-01T08:36:23;19.93;;;9.03;;
51664;SDS011;37751;52.408;12.536;2023-03-01T08:38:53;17.13;;;8.00;;
51664;SDS011;37751;52.408;12.536;2023-03-01T08:41:21;24.27;;;8.83;;
51664;SDS011;37751;52.408;12.536;2023-03-01T08:43:49;19.50;;;8.60;;
51664;SDS011;37751;52.408;12.536;2023-03-01T08:46:17;22.33;;;9.50;;
51664;SDS011;37751;52.408;12.536;2023-03-01T08:48:45;15.83;;;8.33;;
51664;SDS011;37751;52.408;12.536;2023-03-01T08:51:18;20.57;;;10.43;;
51664;SDS011;37751;52.408;12.536;2023-03-01T08:53:46;25.67;;;10.13;;
51664;SDS011;37751;52.408;12.536;2023-03-01T08:56:15;22.87;;;11.23;;
51664;SDS011;37751;52.408;12.536;2023-03-01T08:58:46;19.43;;;9.77;;
51664;SDS011;37751;52.408;12.536;2023-03-01T09:01:16;18.03;;;9.80;;
51664;SDS011;37751;52.408;12.536;2023-03-01T09:03:46;18.87;;;10.73;;
51664;SDS011;37751;52.408;12.536;2023-03-01T09:06:14;19.03;;;9.70;;
51664;SDS011;37751;52.408;12.536;2023-03-01T09:08:44;17.83;;;9.50;;
51664;SDS011;37751;52.408;12.536;2023-03-01T09:11:15;20.43;;;9.83;;
51664;SDS011;37751;52.408;12.536;2023-03-01T09:13:47;15.60;;;8.50;;
51664;SDS011;37751;52.408;12.536;2023-03-01T09:16:16;23.53;;;9.43;;
51664;SDS011;37751;52.408;12.536;2023-03-01T09:18:51;19.07;;;9.33;;
51664;SDS011;37751;52.408;12.536;2023-03-01T09:21:21;13.37;;;8.40;;
51664;SDS011;37751;52.408;12.536;2023-03-01T09:24:15;16.13;;;8.80;;
51664;SDS011;37751;52.408;12.536;2023-03-01T09:26:43;18.73;;;8.00;;
51664;SDS011;37751;52.408;12.536;2023-03-01T09:29:16;21.77;;;8.57;;
51664;SDS011;37751;52.408;12.536;2023-03-01T09:31:44;17.93;;;8.80;;
51664;SDS011;37751;52.408;12.536;2023-03-01T09:34:12;16.40;;;7.97;;
51664;SDS011;37751;52.408;12.536;2023-03-01T09:36:43;15.10;;;8.57;;
51664;SDS011;37751;52.408;12.536;2023-03-01T09:39:11;14.60;;;7.87;;
51664;SDS011;37751;52.408;12.536;2023-03-01T09:44:34;18.80;;;8.53;;
51664;SDS011;37751;52.408;12.536;2023-03-01T09:47:27;16.70;;;7.70;;
51664;SDS011;37751;52.408;12.536;2023-03-01T09:50:20;11.30;;;7.23;;
51664;SDS011;37751;52.408;12.536;2023-03-01T09:53:02;12.23;;;7.83;;
51664;SDS011;37751;52.408;12.536;2023-03-01T09:55:56;13.70;;;6.67;;
51664;SDS011;37751;52.408;12.536;2023-03-01T09:58:50;14.60;;;5.50;;
51664;SDS011;37751;52.408;12.536;2023-03-01T10:01:34;10.87;;;6.43;;
51664;SDS011;37751;52.408;12.536;2023-03-01T10:09:38;12.47;;;4.60;;
51664;SDS011;37751;52.408;12.536;2023-03-01T10:12:14;8.47;;;4.83;;
51664;SDS011;37751;52.408;12.536;2023-03-01T10:17:53;9.73;;;5.23;;
51664;SDS011;37751;52.408;12.536;2023-03-01T10:20:26;11.57;;;5.37;;
51664;SDS011;37751;52.408;12.536;2023-03-01T10:23:10;10.97;;;5.43;;
51664;SDS011;37751;52.408;12.536;2023-03-01T10:28:28;10.43;;;4.53;;
51664;SDS011;37751;52.408;12.536;2023-03-01T10:31:04;8.97;;;4.53;;
51664;SDS011;37751;52.408;12.536;2023-03-01T10:33:39;11.13;;;4.60;;
51664;SDS011;37751;52.408;12.536;2023-03-01T10:36:08;8.67;;;3.97;;
51664;SDS011;37751;52.408;12.536;2023-03-01T10:38:50;9.60;;;4.00;;
51664;SDS011;37751;52.408;12.536;2023-03-01T10:41:25;10.07;;;4.77;;
51664;SDS011;37751;52.408;12.536;2023-03-01T10:44:02;10.10;;;3.73;;
51664;SDS011;37751;52.408;12.536;2023-03-01T10:46:31;7.57;;;3.57;;
51664;SDS011;37751;52.408;12.536;2023-03-01T10:51:56;6.70;;;2.87;;
51664;SDS011;37751;52.408;12.536;2023-03-01T10:54:53;6.40;;;3.37;;
51664;SDS011;37751;52.408;12.536;2023-03-01T10:57:34;5.03;;;3.20;;
51664;SDS011;37751;52.408;12.536;2023-03-01T11:03:10;10.17;;;4.77;;
51664;SDS011;37751;52.408;12.536;2023-03-01T11:05:55;7.73;;;3.80;;
51664;SDS011;37751;52.408;12.536;2023-03-01T11:08:29;5.10;;;3.43;;
51664;SDS011;37751;52.408;12.536;2023-03-01T11:11:19;5.60;;;2.67;;
51664;SDS011;37751;52.408;12.536;2023-03-01T11:14:22;6.23;;;3.87;;
51664;SDS011;37751;52.408;12.536;2023-03-01T11:17:03;10.63;;;4.17;;
51664;SDS011;37751;52.408;12.536;2023-03-01T11:23:03;8.37;;;3.00;;
51664;SDS011;37751;52.408;12.536;2023-03-01T11:25:46;8.10;;;2.97;;
51664;SDS011;37751;52.408;12.536;2023-03-01T11:28:25;9.50;;;2.50;;
51664;SDS011;37751;52.408;12.536;2023-03-01T11:31:01;5.30;;;2.80;;
51664;SDS011;37751;52.408;12.536;2023-03-01T11:33:53;5.40;;;2.53;;
51664;SDS011;37751;52.408;12.536;2023-03-01T11:36:56;4.47;;;2.87;;
51664;SDS011;37751;52.408;12.536;2023-03-01T11:39:38;5.33;;;2.50;;
51664;SDS011;37751;52.408;12.536;2023-03-01T11:52:18;6.13;;;3.57;;
51664;SDS011;37751;52.408;12.536;2023-03-01T12:00:56;4.70;;;2.93;;
51664;SDS011;37751;52.408;12.536;2023-03-01T12:04:32;4.73;;;2.70;;
51664;SDS011;37751;52.408;12.536;2023-03-01T12:10:19;6.43;;;2.77;;
51664;SDS011;37751;52.408;12.536;2023-03-01T12:16:17;5.77;;;3.30;;
51664;SDS011;37751;52.408;12.536;2023-03-01T12:49:34;4.63;;;2.63;;
51664;SDS011;37751;52.408;12.536;2023-03-01T12:52:18;4.67;;;2.97;;
51664;SDS011;37751;52.408;12.536;2023-03-01T12:55:18;4.97;;;2.80;;
51664;SDS011;37751;52.408;12.536;2023-03-01T13:02:27;4.40;;;3.00;;
51664;SDS011;37751;52.408;12.536;2023-03-01T13:05:16;5.37;;;3.03;;
51664;SDS011;37751;52.408;12.536;2023-03-01T13:07:58;7.13;;;3.07;;
51664;SDS011;37751;52.408;12.536;2023-03-01T13:11:14;5.03;;;3.07;;
51664;SDS011;37751;52.408;12.536;2023-03-01T13:13:47;7.23;;;4.63;;
51664;SDS011;37751;52.408;12.536;2023-03-01T13:16:39;7.80;;;3.43;;
51664;SDS011;37751;52.408;12.536;2023-03-01T13:20:02;11.47;;;5.80;;
51664;SDS011;37751;52.408;12.536;2023-03-01T13:22:41;6.87;;;3.73;;
51664;SDS011;37751;52.408;12.536;2023-03-01T13:25:21;7.70;;;4.07;;
51664;SDS011;37751;52.408;12.536;2023-03-01T13:31:57;4.70;;;3.20;;
51664;SDS011;37751;52.408;12.536;2023-03-01T13:37:36;5.53;;;3.03;;
51664;SDS011;37751;52.408;12.536;2023-03-01T13:45:38;5.20;;;3.40;;
51664;SDS011;37751;52.408;12.536;2023-03-01T13:48:29;5.17;;;3.53;;
51664;SDS011;37751;52.408;12.536;2023-03-01T14:09:50;7.37;;;2.93;;
51664;SDS011;37751;52.408;12.536;2023-03-01T14:19:36;6.77;;;3.33;;
51664;SDS011;37751;52.408;12.536;2023-03-01T14:22:30;5.83;;;3.40;;
51664;SDS011;37751;52.408;12.536;2023-03-01T14:25:51;6.03;;;3.57;;
51664;SDS011;37751;52.408;12.536;2023-03-01T14:28:13;5.20;;;3.10;;
51664;SDS011;37751;52.408;12.536;2023-03-01T14:30:54;7.30;;;3.30;;
51664;SDS011;37751;52.408;12.536;2023-03-01T14:33:40;6.30;;;3.30;;
51664;SDS011;37751;52.408;12.536;2023-03-01T14:39:55;5.90;;;2.40;;
51664;SDS011;37751;52.408;12.536;2023-03-01T14:42:42;5.67;;;3.33;;
51664;SDS011;37751;52.408;12.536;2023-03-01T14:45:32;3.20;;;2.47;;
51664;SDS011;37751;52.408;12.536;2023-03-01T14:48:02;3.50;;;2.50;;
51664;SDS011;37751;52.408;12.536;2023-03-01T14:54:39;4.73;;;2.73;;
51664;SDS011;37751;52.408;12.536;2023-03-01T15:00:07;5.33;;;2.90;;
51664;SDS011;37751;52.408;12.536;2023-03-01T15:03:25;11.50;;;2.83;;
51664;SDS011;37751;52.408;12.536;2023-03-01T15:06:06;3.73;;;2.43;;
51664;SDS011;37751;52.408;12.536;2023-03-01T15:08:35;4.30;;;2.80;;
51664;SDS011;37751;52.408;12.536;2023-03-01T15:14:40;5.80;;;2.90;;
51664;SDS011;37751;52.408;12.536;2023-03-01T15:17:33;7.82;;;2.75;;
51664;SDS011;37751;52.408;12.536;2023-03-01T15:20:27;4.93;;;2.93;;
51664;SDS011;37751;52.408;12.536;2023-03-01T15:27:54;7.30;;;2.60;;
51664;SDS011;37751;52.408;12.536;2023-03-01T15:30:35;4.17;;;2.87;;
51664;SDS011;37751;52.408;12.536;2023-03-01T15:33:16;5.73;;;3.00;;
51664;SDS011;37751;52.408;12.536;2023-03-01T15:36:00;9.23;;;3.20;;
51664;SDS011;37751;52.408;12.536;2023-03-01T15:39:40;5.97;;;3.23;;
51664;SDS011;37751;52.408;12.536;2023-03-01T15:42:52;8.23;;;3.03;;
51664;SDS011;37751;52.408;12.536;2023-03-01T15:45:23;5.10;;;2.90;;
51664;SDS011;37751;52.408;12.536;2023-03-01T15:48:17;6.23;;;2.40;;
51664;SDS011;37751;52.408;12.536;2023-03-01T15:52:09;4.53;;;2.42;;
51664;SDS011;37751;52.408;12.536;2023-03-01T15:54:50;16.87;;;8.33;;
51664;SDS011;37751;52.408;12.536;2023-03-01T15:57:18;4.33;;;3.00;;
51664;SDS011;37751;52.408;12.536;2023-03-01T15:59:47;5.82;;;2.55;;
51664;SDS011;37751;52.408;12.536;2023-03-01T16:02:15;6.43;;;2.92;;
51664;SDS011;37751;52.408;12.536;2023-03-01T16:04:43;3.60;;;2.60;;
51664;SDS011;37751;52.408;12.536;2023-03-01T16:07:16;5.18;;;2.65;;
51664;SDS011;37751;52.408;12.536;2023-03-01T16:09:44;5.97;;;3.38;;
51664;SDS011;37751;52.408;12.536;2023-03-01T16:12:18;6.28;;;2.72;;
51664;SDS011;37751;52.408;12.536;2023-03-01T16:14:48;4.38;;;2.90;;
51664;SDS011;37751;52.408;12.536;2023-03-01T16:17:16;6.25;;;3.10;;
51664;SDS011;37751;52.408;12.536;2023-03-01T16:19:43;29.05;;;7.20;;
51664;SDS011;37751;52.408;12.536;2023-03-01T16:22:11;7.30;;;3.80;;
51664;SDS011;37751;52.408;12.536;2023-03-01T16:24:44;5.88;;;3.08;;
51664;SDS011;37751;52.408;12.536;2023-03-01T16:27:12;6.65;;;3.67;;
51664;SDS011;37751;52.408;12.536;2023-03-01T16:29:43;4.45;;;3.03;;
51664;SDS011;37751;52.408;12.536;2023-03-01T16:32:10;4.70;;;2.50;;
51664;SDS011;37751;52.408;12.536;2023-03-01T16:34:40;5.68;;;3.25;;
51664;SDS011;37751;52.408;12.536;2023-03-01T16:37:19;9.70;;;3.73;;
51664;SDS011;37751;52.408;12.536;2023-03-01T16:39:47;7.83;;;4.20;;
51664;SDS011;37751;52.408;12.536;2023-03-01T16:45:19;10.03;;;4.70;;
51664;SDS011;37751;52.408;12.536;2023-03-01T16:47:57;5.60;;;3.60;;
51664;SDS011;37751;52.408;12.536;2023-03-01T16:50:29;10.13;;;4.40;;
51664;SDS011;37751;52.408;12.536;2023-03-01T16:53:02;11.13;;;4.10;;
51664;SDS011;37751;52.408;12.536;2023-03-01T16:55:35;8.57;;;3.50;;
51664;SDS011;37751;52.408;12.536;2023-03-01T16:58:06;7.13;;;3.27;;
51664;SDS011;37751;52.408;12.536;2023-03-01T17:00:34;7.37;;;4.07;;
51664;SDS011;37751;52.408;12.536;2023-03-01T17:03:10;36.57;;;20.47;;
51664;SDS011;37751;52.408;12.536;2023-03-01T17:05:47;10.27;;;5.20;;
51664;SDS011;37751;52.408;12.536;2023-03-01T17:12:11;5.27;;;3.30;;
51664;SDS011;37751;52.408;12.536;2023-03-01T17:14:56;7.40;;;4.07;;
51664;SDS011;37751;52.408;12.536;2023-03-01T17:17:29;8.87;;;4.50;;
51664;SDS011;37751;52.408;12.536;2023-03-01T17:20:16;5.33;;;2.33;;
51664;SDS011;37751;52.408;12.536;2023-03-01T17:22:47;7.07;;;3.60;;
51664;SDS011;37751;52.408;12.536;2023-03-01T17:25:42;11.67;;;3.60;;
51664;SDS011;37751;52.408;12.536;2023-03-01T17:28:17;17.17;;;3.77;;
51664;SDS011;37751;52.408;12.536;2023-03-01T17:30:45;17.10;;;4.33;;
51664;SDS011;37751;52.408;12.536;2023-03-01T17:33:20;12.47;;;4.30;;
51664;SDS011;37751;52.408;12.536;2023-03-01T17:35:49;12.67;;;4.00;;